createdAt,value
2023-05-22T00:01:08.388Z,15.25
2023-05-22T00:03:36.895Z,15.05
2023-05-22T00:06:03.902Z,16.75
2023-05-22T00:08:31.069Z,15.82
2023-05-22T00:10:57.897Z,14.80
2023-05-22T00:13:24.669Z,14.55
2023-05-22T00:15:51.541Z,14.82
2023-05-22T00:18:19.388Z,13.57
2023-05-22T00:20:46.596Z,14.55
2023-05-22T00:23:15.523Z,14.90
2023-05-22T00:25:42.879Z,14.45
2023-05-22T00:28:09.728Z,15.13
2023-05-22T00:30:37.397Z,15.98
2023-05-22T00:33:04.480Z,14.65
2023-05-22T00:35:31.480Z,15.85
2023-05-22T00:37:58.622Z,14.73
2023-05-22T00:40:26.245Z,13.77
2023-05-22T00:42:53.136Z,15.30
2023-05-22T00:45:19.968Z,15.82
2023-05-22T00:47:47.320Z,14.98
2023-05-22T00:50:14.358Z,14.95
2023-05-22T00:52:44.225Z,15.15
2023-05-22T00:55:12.448Z,14.80
2023-05-22T00:57:43.119Z,14.50
2023-05-22T01:00:11.324Z,15.15
2023-05-22T01:02:39.675Z,15.05
2023-05-22T01:05:07.945Z,14.32
2023-05-22T01:07:37.839Z,14.43
2023-05-22T01:10:08.263Z,15.23
2023-05-22T01:12:54.127Z,14.45
2023-05-22T01:15:39.619Z,15.13
2023-05-22T01:18:19.629Z,13.25
2023-05-22T01:20:48.929Z,15.60
2023-05-22T01:23:44.675Z,13.73
2023-05-22T01:26:39.284Z,14.23
2023-05-22T01:29:28.740Z,14.13
2023-05-22T01:31:59.132Z,15.68
2023-05-22T01:34:26.946Z,16.55
2023-05-22T01:36:56.343Z,16.27
2023-05-22T01:39:25.540Z,15.65
2023-05-22T01:41:52.707Z,15.20
2023-05-22T01:44:19.528Z,16.17
2023-05-22T01:46:46.360Z,17.40
2023-05-22T01:49:13.237Z,16.55
2023-05-22T01:51:53.800Z,15.50
2023-05-22T01:54:46.374Z,15.32
2023-05-22T01:57:38.966Z,16.73
2023-05-22T02:00:15.188Z,16.08
2023-05-22T02:03:12.344Z,17.52
2023-05-22T02:05:41.338Z,15.88
2023-05-22T02:08:08.744Z,18.08
2023-05-22T02:10:36.788Z,17.10
2023-05-22T02:13:04.407Z,16.23
2023-05-22T02:15:31.661Z,16.15
2023-05-22T02:18:00.350Z,16.17
2023-05-22T02:20:27.201Z,17.00
2023-05-22T02:22:53.998Z,16.77
2023-05-22T02:25:20.943Z,17.23
2023-05-22T02:27:49.644Z,18.10
2023-05-22T02:30:16.523Z,18.00
2023-05-22T02:32:43.580Z,17.88
2023-05-22T02:35:10.751Z,16.42
2023-05-22T02:37:38.060Z,17.05
2023-05-22T02:40:08.202Z,17.55
2023-05-22T02:42:35.305Z,16.10
2023-05-22T02:45:02.687Z,18.30
2023-05-22T02:47:29.593Z,17.75
2023-05-22T02:49:57.977Z,18.20
2023-05-22T02:52:25.175Z,18.17
2023-05-22T02:54:52.035Z,17.40
2023-05-22T02:57:18.933Z,16.80
2023-05-22T02:59:45.761Z,16.85
2023-05-22T03:02:12.606Z,15.90
2023-05-22T03:04:39.480Z,16.35
2023-05-22T03:07:07.327Z,16.25
2023-05-22T03:09:34.275Z,16.15
2023-05-22T03:12:01.181Z,15.75
2023-05-22T03:14:29.247Z,15.75
2023-05-22T03:16:56.404Z,16.73
2023-05-22T03:19:23.546Z,16.70
2023-05-22T03:21:50.475Z,15.70
2023-05-22T03:24:17.641Z,16.63
2023-05-22T03:26:44.458Z,16.27
2023-05-22T03:29:11.326Z,17.25
2023-05-22T03:31:38.226Z,15.40
2023-05-22T03:34:06.082Z,16.80
2023-05-22T03:36:36.264Z,15.48
2023-05-22T03:39:04.177Z,15.18
2023-05-22T03:41:31.445Z,17.05
2023-05-22T03:43:58.943Z,17.67
2023-05-22T03:46:26.623Z,17.27
2023-05-22T03:48:53.601Z,15.90
2023-05-22T03:51:20.595Z,15.10
2023-05-22T03:53:47.490Z,14.25
2023-05-22T03:56:14.432Z,17.45
2023-05-22T03:58:41.217Z,16.35
2023-05-22T04:01:10.079Z,16.75
2023-05-22T04:03:37.948Z,16.05
2023-05-22T04:06:05.836Z,15.15
2023-05-22T04:08:33.054Z,15.55
2023-05-22T04:11:00.298Z,14.85
2023-05-22T04:13:27.696Z,16.80
2023-05-22T04:15:54.851Z,16.13
2023-05-22T04:18:21.697Z,16.27
2023-05-22T04:20:51.774Z,14.50
2023-05-22T04:23:18.593Z,15.50
2023-05-22T04:25:48.157Z,14.77
2023-05-22T04:28:17.635Z,14.82
2023-05-22T04:30:44.735Z,14.38
2023-05-22T04:33:12.755Z,14.35
2023-05-22T04:35:40.939Z,15.60
2023-05-22T04:38:07.849Z,15.02
2023-05-22T04:40:34.729Z,16.35
2023-05-22T04:43:01.832Z,16.23
2023-05-22T04:45:29.150Z,15.32
2023-05-22T04:47:56.603Z,15.68
2023-05-22T04:50:24.068Z,16.45
2023-05-22T04:52:51.055Z,16.58
2023-05-22T04:55:19.384Z,16.92
2023-05-22T04:57:47.392Z,15.48
2023-05-22T05:00:17.006Z,16.08
2023-05-22T05:02:44.027Z,16.27
2023-05-22T05:05:11.110Z,16.77
2023-05-22T05:07:39.527Z,17.42
2023-05-22T05:10:07.351Z,16.38
2023-05-22T05:12:34.568Z,17.08
2023-05-22T05:15:01.447Z,16.30
2023-05-22T05:17:28.826Z,17.10
2023-05-22T05:19:55.901Z,16.48
2023-05-22T05:22:23.066Z,17.05
2023-05-22T05:24:50.024Z,16.42
2023-05-22T05:27:17.143Z,17.27
2023-05-22T05:29:44.043Z,16.88
2023-05-22T05:32:12.590Z,17.63
2023-05-22T05:34:39.548Z,17.25
2023-05-22T05:37:06.505Z,19.27
2023-05-22T05:39:33.390Z,17.58
2023-05-22T05:42:00.509Z,16.98
2023-05-22T05:44:27.476Z,17.02
2023-05-22T05:46:54.823Z,15.73
2023-05-22T05:49:22.354Z,16.85
2023-05-22T05:51:49.207Z,17.10
2023-05-22T05:54:16.088Z,17.20
2023-05-22T05:56:43.156Z,16.98
2023-05-22T05:59:10.111Z,16.10
2023-05-22T06:01:38.895Z,16.67
2023-05-22T06:04:05.891Z,16.33
2023-05-22T06:06:36.448Z,16.63
2023-05-22T06:09:08.000Z,15.98
2023-05-22T06:11:35.165Z,16.38
2023-05-22T06:14:03.257Z,15.77
2023-05-22T06:16:31.480Z,14.55
2023-05-22T06:18:59.523Z,16.02
2023-05-22T06:21:26.515Z,15.60
2023-05-22T06:23:53.341Z,13.98
2023-05-22T06:26:20.268Z,16.10
2023-05-22T06:28:47.197Z,15.18
2023-05-22T06:31:14.457Z,13.43
2023-05-22T06:33:43.305Z,13.23
2023-05-22T06:36:11.562Z,12.75
2023-05-22T06:38:39.318Z,13.60
2023-05-22T06:41:06.538Z,12.85
2023-05-22T06:43:33.580Z,12.50
2023-05-22T06:46:00.544Z,10.93
2023-05-22T06:48:27.432Z,10.75
2023-05-22T06:50:54.236Z,10.50
2023-05-22T06:53:21.172Z,10.48
2023-05-22T06:55:48.331Z,11.23
2023-05-22T06:58:15.190Z,9.60
2023-05-22T07:00:42.309Z,10.63
2023-05-22T07:03:09.347Z,10.60
2023-05-22T07:05:36.391Z,10.48
2023-05-22T07:08:03.331Z,10.15
2023-05-22T07:10:30.563Z,9.98
2023-05-22T07:12:57.446Z,9.73
2023-05-22T07:15:24.282Z,9.30
2023-05-22T07:17:51.106Z,9.38
2023-05-22T07:20:18.088Z,9.80
2023-05-22T07:22:44.937Z,11.05
2023-05-22T07:25:12.099Z,10.25
2023-05-22T07:27:38.965Z,11.88
2023-05-22T07:30:06.543Z,10.93
2023-05-22T07:32:33.389Z,9.73
2023-05-22T07:35:00.242Z,8.90
2023-05-22T07:37:27.120Z,8.90
2023-05-22T07:39:53.949Z,9.25
2023-05-22T07:42:21.777Z,8.68
2023-05-22T07:44:48.616Z,12.73
2023-05-22T07:47:15.521Z,9.15
2023-05-22T07:49:42.397Z,9.23
2023-05-22T07:52:09.240Z,9.13
2023-05-22T07:54:36.067Z,9.40
2023-05-22T07:57:03.636Z,8.77
2023-05-22T07:59:30.588Z,9.35
2023-05-22T08:01:58.435Z,8.68
2023-05-22T08:04:26.242Z,8.55
2023-05-22T08:06:53.388Z,8.63
2023-05-22T08:09:21.552Z,8.38
2023-05-22T08:11:48.466Z,8.68
2023-05-22T08:14:15.469Z,9.57
2023-05-22T08:16:42.338Z,8.18
2023-05-22T08:19:09.316Z,8.52
2023-05-22T08:21:37.585Z,8.25
2023-05-22T08:24:04.679Z,8.88
2023-05-22T08:26:33.342Z,8.73
2023-05-22T08:29:00.914Z,8.13
2023-05-22T08:31:31.016Z,8.50
2023-05-22T08:34:02.501Z,13.00
2023-05-22T08:38:58.640Z,7.57
2023-05-22T08:41:25.851Z,8.32
2023-05-22T08:43:53.166Z,8.65
2023-05-22T08:46:21.224Z,8.60
2023-05-22T08:48:48.461Z,8.02
2023-05-22T08:51:19.829Z,7.55
2023-05-22T08:53:49.542Z,8.07
2023-05-22T08:56:17.925Z,7.57
2023-05-22T08:58:46.006Z,8.77
2023-05-22T09:01:14.515Z,8.70
2023-05-22T09:03:41.578Z,8.65
2023-05-22T09:06:10.391Z,8.18
2023-05-22T09:08:38.506Z,8.25
2023-05-22T09:11:05.327Z,8.30
2023-05-22T09:13:32.384Z,8.63
2023-05-22T09:16:19.996Z,8.38
2023-05-22T09:18:47.084Z,8.77
2023-05-22T09:21:28.994Z,8.38
2023-05-22T09:24:01.366Z,8.35
2023-05-22T09:26:33.017Z,8.18
2023-05-22T09:29:00.510Z,8.82
2023-05-22T09:31:29.476Z,9.10
2023-05-22T09:33:56.463Z,8.68
2023-05-22T09:36:33.368Z,8.07
2023-05-22T09:39:01.806Z,8.50
2023-05-22T09:41:38.346Z,8.77
2023-05-22T09:44:35.322Z,7.80
2023-05-22T09:47:03.039Z,8.80
2023-05-22T09:49:29.904Z,7.25
2023-05-22T09:51:57.659Z,7.35
2023-05-22T09:54:26.390Z,7.60
2023-05-22T09:56:57.192Z,8.00
2023-05-22T09:59:30.126Z,7.20
2023-05-22T10:01:57.932Z,7.40
2023-05-22T10:04:28.113Z,8.38
2023-05-22T10:06:57.233Z,7.13
2023-05-22T10:09:31.021Z,7.65
2023-05-22T10:12:04.141Z,11.70
2023-05-22T10:14:31.624Z,6.80
2023-05-22T10:17:02.200Z,9.30
2023-05-22T10:19:31.277Z,6.75
2023-05-22T10:22:00.223Z,6.50
2023-05-22T10:24:27.423Z,6.97
2023-05-22T10:26:54.972Z,6.82
2023-05-22T10:29:40.578Z,6.53
2023-05-22T10:32:35.636Z,7.75
2023-05-22T10:35:32.780Z,7.13
2023-05-22T10:38:08.590Z,6.97
2023-05-22T10:40:36.204Z,6.63
2023-05-22T10:43:04.221Z,6.70
2023-05-22T10:45:34.609Z,7.43
2023-05-22T10:48:05.454Z,8.05
2023-05-22T10:50:32.900Z,7.13
2023-05-22T10:53:24.375Z,6.72
2023-05-22T10:55:56.793Z,6.68
2023-05-22T10:58:30.248Z,6.45
2023-05-22T11:01:13.560Z,6.72
2023-05-22T11:03:56.748Z,6.68
2023-05-22T11:06:43.060Z,6.20
2023-05-22T11:09:31.745Z,6.68
2023-05-22T11:12:24.261Z,6.78
2023-05-22T11:14:53.332Z,6.45
2023-05-22T11:17:28.904Z,6.32
2023-05-22T11:20:05.560Z,6.65
2023-05-22T11:22:50.208Z,6.72
2023-05-22T11:25:18.509Z,6.63
2023-05-22T11:27:46.507Z,6.72
2023-05-22T11:30:13.990Z,6.38
2023-05-22T11:32:44.974Z,6.65
2023-05-22T11:35:15.656Z,6.10
2023-05-22T11:37:42.557Z,5.90
2023-05-22T11:40:10.209Z,5.88
2023-05-22T11:42:37.783Z,6.18
2023-05-22T11:45:05.458Z,6.07
2023-05-22T11:47:32.438Z,6.13
2023-05-22T11:49:59.995Z,6.70
2023-05-22T11:52:32.442Z,5.57
2023-05-22T11:54:59.912Z,5.43
2023-05-22T11:57:27.249Z,4.68
2023-05-22T11:59:54.376Z,5.20
2023-05-22T12:02:21.263Z,5.60
2023-05-22T12:04:48.545Z,5.35
2023-05-22T12:07:15.498Z,5.30
2023-05-22T12:09:42.977Z,4.47
2023-05-22T12:12:11.560Z,4.90
2023-05-22T12:14:38.712Z,5.70
2023-05-22T12:17:06.476Z,5.15
2023-05-22T12:19:33.444Z,5.25
2023-05-22T12:22:00.423Z,5.40
2023-05-22T12:24:37.319Z,5.25
2023-05-22T12:27:12.444Z,5.85
2023-05-22T12:29:39.979Z,5.47
2023-05-22T12:32:11.804Z,6.13
2023-05-22T12:34:47.198Z,5.85
2023-05-22T12:37:28.175Z,5.90
2023-05-22T12:39:59.007Z,5.68
2023-05-22T12:42:26.586Z,5.30
2023-05-22T12:44:54.862Z,5.78
2023-05-22T12:47:42.882Z,6.10
2023-05-22T12:50:10.245Z,6.15
2023-05-22T12:52:37.142Z,6.07
2023-05-22T12:55:04.593Z,5.50
2023-05-22T12:57:31.591Z,5.30
2023-05-22T12:59:58.441Z,5.80
2023-05-22T13:02:25.494Z,5.85
2023-05-22T13:04:52.488Z,5.35
2023-05-22T13:07:19.393Z,5.38
2023-05-22T13:09:46.233Z,5.95
2023-05-22T13:12:13.209Z,6.68
2023-05-22T13:14:40.647Z,6.45
2023-05-22T13:17:08.050Z,6.20
2023-05-22T13:19:35.188Z,6.40
2023-05-22T13:22:02.186Z,6.28
2023-05-22T13:24:29.621Z,5.82
2023-05-22T13:26:56.550Z,5.70
2023-05-22T13:29:23.379Z,5.97
2023-05-22T13:31:50.315Z,5.85
2023-05-22T13:34:17.209Z,6.45
2023-05-22T13:36:44.362Z,6.25
2023-05-22T13:39:11.376Z,5.53
2023-05-22T13:41:38.206Z,5.45
2023-05-22T13:44:05.037Z,5.75
2023-05-22T13:46:32.213Z,5.78
2023-05-22T13:48:59.908Z,5.97
2023-05-22T13:51:26.733Z,5.80
2023-05-22T13:54:01.449Z,6.45
2023-05-22T13:56:28.517Z,6.15
2023-05-22T13:59:01.973Z,5.25
2023-05-22T14:01:29.250Z,6.00
2023-05-22T14:03:56.263Z,5.93
2023-05-22T14:06:23.756Z,5.35
2023-05-22T14:08:51.093Z,5.53
2023-05-22T14:11:18.167Z,4.80
2023-05-22T14:13:45.136Z,5.82
2023-05-22T14:16:12.171Z,5.75
2023-05-22T14:18:39.170Z,4.97
2023-05-22T14:21:06.242Z,5.97
2023-05-22T14:23:33.204Z,5.72
2023-05-22T14:26:00.065Z,5.82
2023-05-22T14:28:26.985Z,5.05
2023-05-22T14:30:53.893Z,5.00
2023-05-22T14:33:20.778Z,4.72
2023-05-22T14:35:48.560Z,5.22
2023-05-22T14:38:15.650Z,5.05
2023-05-22T14:40:42.629Z,5.30
2023-05-22T14:43:12.715Z,5.15
2023-05-22T14:45:39.647Z,5.28
2023-05-22T14:48:11.033Z,4.78
2023-05-22T14:50:38.093Z,5.10
2023-05-22T14:53:04.871Z,4.85
2023-05-22T14:55:31.885Z,5.68
2023-05-22T14:57:58.709Z,5.50
2023-05-22T15:00:26.656Z,4.57
2023-05-22T15:02:53.450Z,5.40
2023-05-22T15:05:20.620Z,5.18
2023-05-22T15:07:49.782Z,4.90
2023-05-22T15:10:18.234Z,4.82
2023-05-22T15:12:45.053Z,5.28
2023-05-22T15:15:12.064Z,5.30
2023-05-22T15:17:40.809Z,5.22
2023-05-22T15:20:09.987Z,5.00
2023-05-22T15:22:36.821Z,4.68
2023-05-22T15:25:17.171Z,5.15
2023-05-22T15:27:44.060Z,5.70
2023-05-22T15:30:12.245Z,5.03
2023-05-22T15:32:39.480Z,5.20
2023-05-22T15:35:07.424Z,4.88
2023-05-22T15:37:34.482Z,4.75
2023-05-22T15:40:02.457Z,5.35
2023-05-22T15:42:29.579Z,4.57
2023-05-22T15:44:58.344Z,4.90
2023-05-22T15:47:25.276Z,4.70
2023-05-22T15:49:52.110Z,4.47
2023-05-22T15:52:19.382Z,4.80
2023-05-22T15:54:46.289Z,4.60
2023-05-22T15:57:13.279Z,5.03
2023-05-22T15:59:51.156Z,4.55
2023-05-22T16:02:18.756Z,4.68
2023-05-22T16:04:46.074Z,4.55
2023-05-22T16:07:13.241Z,5.00
2023-05-22T16:09:41.415Z,4.63
2023-05-22T16:12:31.545Z,4.47
2023-05-22T16:15:00.538Z,5.00
2023-05-22T16:17:27.920Z,4.90
2023-05-22T16:19:56.830Z,5.15
2023-05-22T16:22:28.119Z,5.15
2023-05-22T16:25:00.172Z,5.18
2023-05-22T16:27:27.126Z,5.38
2023-05-22T16:29:53.952Z,5.47
2023-05-22T16:32:20.804Z,5.22
2023-05-22T16:34:47.598Z,5.85
2023-05-22T16:37:14.426Z,4.82
2023-05-22T16:39:41.411Z,5.43
2023-05-22T16:42:08.313Z,6.03
2023-05-22T16:44:35.186Z,5.25
2023-05-22T16:47:02.029Z,5.10
2023-05-22T16:49:43.370Z,5.60
2023-05-22T16:52:10.356Z,6.05
2023-05-22T16:54:37.290Z,5.80
2023-05-22T16:57:04.869Z,5.72
2023-05-22T16:59:31.874Z,6.32
2023-05-22T17:01:58.764Z,6.15
2023-05-22T17:04:25.592Z,6.05
2023-05-22T17:07:00.685Z,5.93
2023-05-22T17:09:30.745Z,5.20
2023-05-22T17:11:57.539Z,6.10
2023-05-22T17:14:26.179Z,6.03
2023-05-22T17:16:54.311Z,5.88
2023-05-22T17:19:21.495Z,6.13
2023-05-22T17:21:48.364Z,5.80
2023-05-22T17:24:15.190Z,6.03
2023-05-22T17:26:42.596Z,5.82
2023-05-22T17:29:10.976Z,6.65
2023-05-22T17:31:39.538Z,6.78
2023-05-22T17:34:06.589Z,5.95
2023-05-22T17:36:33.598Z,6.03
2023-05-22T17:39:01.062Z,7.70
2023-05-22T17:41:28.136Z,6.30
2023-05-22T17:43:57.066Z,6.85
2023-05-22T17:46:23.988Z,6.75
2023-05-22T17:48:51.158Z,7.07
2023-05-22T17:51:18.042Z,6.78
2023-05-22T17:53:44.812Z,6.78
2023-05-22T17:56:11.801Z,7.88
2023-05-22T17:58:38.722Z,7.68
2023-05-22T18:01:05.584Z,7.05
2023-05-22T18:03:32.553Z,11.48
2023-05-22T18:05:59.586Z,12.23
2023-05-22T18:08:26.413Z,9.60
2023-05-22T18:10:55.730Z,7.10
2023-05-22T18:13:22.707Z,7.10
2023-05-22T18:15:51.343Z,8.32
2023-05-22T18:18:18.275Z,8.07
2023-05-22T18:20:46.224Z,19.40
2023-05-22T18:23:13.075Z,19.15
2023-05-22T18:25:39.925Z,42.15
2023-05-22T18:28:08.188Z,46.45
2023-05-22T18:30:35.113Z,17.95
2023-05-22T18:33:02.000Z,39.33
2023-05-22T18:35:29.050Z,14.23
2023-05-22T18:37:59.740Z,19.40
2023-05-22T18:40:26.818Z,35.08
2023-05-22T18:42:53.608Z,23.90
2023-05-22T18:45:20.494Z,15.13
2023-05-22T18:47:47.445Z,13.60
2023-05-22T18:50:14.506Z,11.13
2023-05-22T18:52:41.579Z,8.38
2023-05-22T18:55:19.918Z,8.95
2023-05-22T18:57:46.714Z,9.70
2023-05-22T19:00:29.020Z,37.10
2023-05-22T19:02:55.839Z,15.25
2023-05-22T19:05:22.652Z,10.35
2023-05-22T19:07:49.536Z,8.52
2023-05-22T19:10:16.735Z,9.10
2023-05-22T19:12:43.537Z,9.07
2023-05-22T19:15:11.090Z,9.05
2023-05-22T19:17:38.067Z,9.65
2023-05-22T19:20:08.740Z,19.77
2023-05-22T19:22:36.158Z,76.80
2023-05-22T19:25:03.161Z,61.05
2023-05-22T19:27:30.046Z,68.35
2023-05-22T19:29:57.001Z,331.13
2023-05-22T19:32:23.800Z,154.57
2023-05-22T19:34:50.856Z,128.43
2023-05-22T19:37:17.732Z,45.25
2023-05-22T19:39:44.566Z,71.85
2023-05-22T19:42:12.225Z,54.92
2023-05-22T19:44:39.059Z,35.13
2023-05-22T19:47:06.005Z,36.00
2023-05-22T19:49:36.846Z,28.85
2023-05-22T19:52:04.816Z,22.73
2023-05-22T19:54:31.695Z,14.55
2023-05-22T19:56:58.479Z,14.48
2023-05-22T19:59:25.347Z,18.35
2023-05-22T20:01:53.924Z,17.50
2023-05-22T20:04:21.524Z,16.92
2023-05-22T20:06:48.492Z,16.08
2023-05-22T20:09:15.534Z,16.42
2023-05-22T20:11:42.553Z,15.25
2023-05-22T20:14:09.429Z,12.13
2023-05-22T20:16:36.374Z,11.02
2023-05-22T20:19:04.101Z,11.00
2023-05-22T20:21:32.129Z,10.15
2023-05-22T20:23:59.196Z,9.25
2023-05-22T20:26:26.111Z,9.10
2023-05-22T20:28:53.338Z,9.00
2023-05-22T20:31:20.212Z,9.02
2023-05-22T20:33:48.159Z,9.32
2023-05-22T20:36:16.599Z,8.43
2023-05-22T20:38:43.832Z,8.93
2023-05-22T20:41:12.918Z,9.43
2023-05-22T20:43:43.288Z,9.00
2023-05-22T20:46:10.565Z,9.32
2023-05-22T20:48:38.045Z,8.80
2023-05-22T20:51:05.201Z,8.90
2023-05-22T20:53:32.073Z,9.88
2023-05-22T20:56:00.144Z,9.32
2023-05-22T20:58:27.413Z,9.23
2023-05-22T21:00:54.468Z,8.75
2023-05-22T21:03:22.417Z,9.38
2023-05-22T21:05:50.463Z,9.65
2023-05-22T21:08:18.353Z,9.13
2023-05-22T21:10:45.155Z,9.50
2023-05-22T21:13:11.947Z,10.77
2023-05-22T21:15:38.818Z,9.90
2023-05-22T21:18:06.250Z,10.32
2023-05-22T21:20:33.077Z,10.43
2023-05-22T21:22:59.908Z,9.10
2023-05-22T21:25:26.742Z,9.43
2023-05-22T21:27:54.517Z,9.10
2023-05-22T21:30:21.690Z,8.63
2023-05-22T21:32:48.571Z,8.75
2023-05-22T21:35:15.431Z,9.30
2023-05-22T21:37:42.225Z,8.48
2023-05-22T21:40:09.337Z,9.85
2023-05-22T21:42:46.593Z,8.80
2023-05-22T21:45:14.145Z,10.13
2023-05-22T21:47:41.291Z,9.05
2023-05-22T21:50:08.494Z,9.30
2023-05-22T21:52:35.395Z,9.27
2023-05-22T21:55:02.613Z,8.77
2023-05-22T21:57:29.757Z,9.30
2023-05-22T21:59:56.589Z,9.23
2023-05-22T22:02:23.460Z,10.10
2023-05-22T22:04:50.484Z,10.00
2023-05-22T22:07:17.332Z,8.88
2023-05-22T22:09:44.132Z,8.60
2023-05-22T22:12:11.600Z,9.38
2023-05-22T22:14:38.427Z,9.70
2023-05-22T22:17:05.994Z,10.48
2023-05-22T22:19:34.458Z,9.75
2023-05-22T22:22:02.012Z,9.32
2023-05-22T22:24:29.754Z,9.25
2023-05-22T22:26:56.806Z,9.15
2023-05-22T22:29:23.634Z,9.50
2023-05-22T22:31:50.537Z,9.55
2023-05-22T22:34:17.430Z,10.27
2023-05-22T22:36:44.330Z,9.57
2023-05-22T22:39:11.274Z,10.13
2023-05-22T22:41:38.152Z,10.40
2023-05-22T22:44:04.979Z,8.43
2023-05-22T22:46:32.264Z,9.80
2023-05-22T22:49:01.838Z,9.32
2023-05-22T22:51:30.837Z,10.60
2023-05-22T22:53:58.405Z,9.98
2023-05-22T22:56:29.361Z,10.07
2023-05-22T22:58:57.220Z,10.32
2023-05-22T23:01:24.389Z,9.95
2023-05-22T23:03:51.549Z,9.93
2023-05-22T23:06:19.482Z,10.07
2023-05-22T23:08:46.437Z,10.43
2023-05-22T23:11:13.271Z,9.93
2023-05-22T23:13:41.427Z,8.68
2023-05-22T23:16:08.601Z,9.60
2023-05-22T23:18:35.700Z,9.27
2023-05-22T23:21:02.573Z,9.65
2023-05-22T23:23:29.448Z,9.10
2023-05-22T23:25:58.841Z,9.50
2023-05-22T23:28:25.943Z,9.27
2023-05-22T23:30:52.974Z,9.65
2023-05-22T23:33:19.826Z,9.50
2023-05-22T23:35:46.638Z,10.38
2023-05-22T23:38:13.460Z,9.20
2023-05-22T23:40:40.247Z,8.93
2023-05-22T23:43:07.057Z,9.15
2023-05-22T23:45:33.829Z,9.77
2023-05-22T23:48:00.781Z,9.05
2023-05-22T23:50:27.602Z,8.95
2023-05-22T23:52:54.495Z,8.85
2023-05-22T23:55:21.308Z,9.20
2023-05-22T23:57:48.151Z,10.05
